Time;durP1;ratioP1;P1;durP2;ratioP2;P2;SDS_P1;SDS_P2;PMS_P1;PMS_P2;Temp;Humidity;BMP_temperature;BMP_pressure;BME280_temperature;BME280_humidity;BME280_pressure;Samples;Min_cycle;Max_cycle;Signal;HPM_P1;HPM_P2
2021/06/09 00:01:09;;;;;;;2.88;1.90;;;17.30;62.70;;;;;;4807769;29;20051;-66
2021/06/09 00:03:37;;;;;;;7.60;2.10;;;17.30;62.90;;;;;;4792832;29;20395;-66
2021/06/09 00:06:04;;;;;;;5.35;2.00;;;17.20;63.10;;;;;;4810474;29;20071;-68
2021/06/09 00:08:32;;;;;;;5.05;2.20;;;17.20;63.10;;;;;;4793497;29;20066;-68
2021/06/09 00:11:01;;;;;;;4.18;2.25;;;17.10;63.20;;;;;;4791123;29;20371;-67
2021/06/09 00:13:30;;;;;;;7.22;2.53;;;17.10;63.20;;;;;;4798499;29;20054;-67
2021/06/09 00:16:02;;;;;;;2.95;2.03;;;17.00;63.30;;;;;;4794559;29;20055;-68
2021/06/09 00:18:30;;;;;;;2.67;2.00;;;17.00;63.40;;;;;;4791084;29;20394;-67
2021/06/09 00:20:58;;;;;;;3.08;2.10;;;16.90;63.50;;;;;;4798098;29;20439;-67
2021/06/09 00:23:28;;;;;;;4.32;1.92;;;16.90;63.60;;;;;;4803508;29;20058;-67
2021/06/09 00:26:00;;;;;;;4.95;2.40;;;16.90;63.70;;;;;;4809953;29;20070;-68
2021/06/09 00:28:30;;;;;;;6.95;2.13;;;16.90;63.80;;;;;;4791834;29;20482;-66
2021/06/09 00:31:07;;;;;;;3.13;2.08;;;16.90;63.90;;;;;;4806150;29;20062;-68
2021/06/09 00:33:35;;;;;;;3.58;1.73;;;16.80;64.00;;;;;;4796466;29;20062;-67
2021/06/09 00:36:04;;;;;;;2.63;2.08;;;16.80;64.10;;;;;;4801280;29;20406;-66
2021/06/09 00:38:32;;;;;;;5.07;2.20;;;16.80;64.20;;;;;;4795619;29;20059;-69
2021/06/09 00:41:02;;;;;;;2.35;1.77;;;16.80;64.20;;;;;;4797242;29;20055;-68
2021/06/09 00:43:33;;;;;;;3.55;2.10;;;16.80;64.30;;;;;;4808559;29;20071;-69
2021/06/09 00:46:06;;;;;;;2.55;1.80;;;16.80;64.30;;;;;;4788290;29;20060;-66
2021/06/09 00:48:40;;;;;;;3.08;1.95;;;16.80;64.40;;;;;;4795006;29;20055;-68
2021/06/09 00:51:17;;;;;;;3.35;2.28;;;16.80;64.40;;;;;;4797116;29;20059;-67
2021/06/09 00:53:55;;;;;;;7.13;2.35;;;16.70;64.40;;;;;;4796463;29;20145;-67
2021/06/09 00:56:24;;;;;;;2.90;2.08;;;16.70;64.40;;;;;;4787148;29;20051;-69
2021/06/09 00:58:53;;;;;;;2.25;1.92;;;16.70;64.50;;;;;;4794720;29;20470;-67
2021/06/09 01:01:25;;;;;;;4.15;2.05;;;16.60;64.60;;;;;;4808491;29;20058;-65
2021/06/09 01:03:53;;;;;;;3.40;1.80;;;16.60;64.80;;;;;;4808420;29;20069;-69
2021/06/09 01:06:22;;;;;;;3.38;2.15;;;16.50;64.90;;;;;;4809438;29;20059;-67
2021/06/09 01:08:52;;;;;;;3.15;2.22;;;16.50;65.00;;;;;;4803703;29;20059;-66
2021/06/09 01:11:23;;;;;;;4.90;2.65;;;16.50;65.10;;;;;;4808348;29;20130;-69
2021/06/09 01:13:51;;;;;;;3.00;2.25;;;16.50;65.20;;;;;;4793622;29;20051;-69
2021/06/09 01:16:20;;;;;;;5.15;2.17;;;16.50;65.20;;;;;;4776179;29;20052;-67
2021/06/09 01:18:48;;;;;;;3.80;2.00;;;16.40;65.20;;;;;;4814266;29;20063;-69
2021/06/09 01:21:22;;;;;;;2.20;1.90;;;16.40;65.30;;;;;;4791436;29;20066;-68
2021/06/09 01:23:50;;;;;;;3.60;2.15;;;16.40;65.30;;;;;;4803909;29;20070;-65
2021/06/09 01:26:18;;;;;;;3.13;1.83;;;16.40;65.20;;;;;;4804726;29;20374;-65
2021/06/09 01:28:46;;;;;;;2.35;2.13;;;16.40;65.20;;;;;;4790599;29;20059;-65
2021/06/09 01:31:16;;;;;;;2.53;1.92;;;16.50;65.10;;;;;;4795295;29;20058;-68
2021/06/09 01:33:44;;;;;;;5.03;2.40;;;16.50;65.20;;;;;;4799020;29;20070;-67
2021/06/09 01:36:14;;;;;;;2.50;1.75;;;16.50;65.40;;;;;;4808087;29;20463;-66
2021/06/09 01:38:53;;;;;;;4.05;2.22;;;16.50;65.40;;;;;;4808733;29;20390;-66
2021/06/09 01:41:26;;;;;;;3.15;2.08;;;16.50;65.50;;;;;;4803061;29;20483;-66
2021/06/09 01:43:54;;;;;;;2.42;1.73;;;16.50;65.60;;;;;;4789665;29;20498;-65
2021/06/09 01:46:23;;;;;;;3.45;2.00;;;16.40;65.60;;;;;;4801169;29;20399;-67
2021/06/09 01:48:52;;;;;;;5.57;2.08;;;16.40;65.70;;;;;;4802484;29;20051;-66
2021/06/09 01:51:20;;;;;;;4.85;1.92;;;16.40;65.80;;;;;;4792713;29;20075;-67
2021/06/09 01:53:49;;;;;;;4.10;2.10;;;16.40;65.80;;;;;;4811308;29;20109;-68
2021/06/09 01:56:17;;;;;;;4.43;2.25;;;16.40;65.90;;;;;;4788893;29;20063;-67
2021/06/09 01:58:45;;;;;;;3.33;2.17;;;16.30;65.90;;;;;;4806749;29;20063;-67
2021/06/09 02:01:13;;;;;;;3.78;1.80;;;16.30;65.90;;;;;;4808673;29;20063;-68
2021/06/09 02:03:42;;;;;;;3.05;1.90;;;16.30;66.10;;;;;;4803180;29;20063;-67
2021/06/09 02:06:10;;;;;;;4.18;2.22;;;16.30;66.30;;;;;;4804298;29;20493;-67
2021/06/09 02:08:40;;;;;;;5.85;2.10;;;16.30;66.30;;;;;;4790230;29;20066;-67
2021/06/09 02:11:08;;;;;;;5.20;2.00;;;16.30;66.40;;;;;;4805709;29;20506;-68
2021/06/09 02:13:36;;;;;;;3.05;2.15;;;16.30;66.50;;;;;;4807956;29;20062;-67
2021/06/09 02:16:04;;;;;;;2.72;1.92;;;16.30;66.60;;;;;;4815596;29;20387;-67
2021/06/09 02:18:33;;;;;;;2.72;2.28;;;16.30;66.70;;;;;;4798106;29;20066;-68
2021/06/09 02:21:03;;;;;;;2.83;2.13;;;16.20;66.80;;;;;;4791244;29;20070;-66
2021/06/09 02:23:35;;;;;;;3.08;2.13;;;16.20;66.90;;;;;;4804139;29;20498;-66
2021/06/09 02:26:03;;;;;;;3.72;2.75;;;16.20;67.00;;;;;;4790037;29;20078;-66
2021/06/09 02:28:33;;;;;;;2.78;2.22;;;16.10;67.00;;;;;;4805411;29;20065;-65
2021/06/09 02:31:01;;;;;;;3.83;2.47;;;16.10;67.10;;;;;;4807251;29;20055;-67
2021/06/09 02:33:29;;;;;;;3.45;2.33;;;16.10;67.10;;;;;;4807945;29;20051;-68
2021/06/09 02:35:58;;;;;;;4.55;2.60;;;16.10;67.20;;;;;;4819809;29;20054;-66
2021/06/09 02:38:26;;;;;;;4.53;2.70;;;16.00;67.20;;;;;;4802262;29;20066;-68
2021/06/09 02:40:57;;;;;;;6.03;2.60;;;16.00;67.30;;;;;;4793575;29;20074;-67
2021/06/09 02:43:31;;;;;;;8.40;2.70;;;16.00;67.40;;;;;;4805919;29;20070;-65
2021/06/09 02:46:10;;;;;;;;;;;16.00;67.30;;;;;;4782990;29;20483;-65
2021/06/09 02:48:42;;;;;;;6.95;2.92;;;16.00;67.30;;;;;;4789379;29;19925;-67
2021/06/09 02:51:16;;;;;;;3.58;3.22;;;15.90;67.10;;;;;;4791063;29;20059;-68
2021/06/09 02:53:50;;;;;;;4.65;3.25;;;16.00;67.20;;;;;;4779026;29;20062;-66
2021/06/09 02:57:06;;;;;;;5.38;3.40;;;15.90;67.30;;;;;;4795653;29;20067;-65
2021/06/09 02:59:51;;;;;;;3.30;3.00;;;15.90;67.50;;;;;;4788576;29;20063;-67
2021/06/09 03:02:32;;;;;;;5.47;3.42;;;15.90;67.50;;;;;;4797492;29;20438;-65
2021/06/09 03:05:16;;;;;;;4.68;3.47;;;15.80;67.40;;;;;;4806999;29;20055;-67
2021/06/09 03:08:08;;;;;;;8.38;4.07;;;15.80;67.50;;;;;;4801029;29;20055;-66
2021/06/09 03:11:00;;;;;;;5.55;3.33;;;15.80;67.60;;;;;;4794896;29;20131;-66
2021/06/09 03:14:02;;;;;;;5.82;3.63;;;15.80;67.70;;;;;;4792653;30;20525;-66
2021/06/09 03:16:41;;;;;;;5.90;3.50;;;15.80;68.00;;;;;;4797275;29;20070;-68
2021/06/09 03:19:16;;;;;;;4.75;3.00;;;15.80;67.90;;;;;;4795060;29;20058;-66
2021/06/09 03:21:50;;;;;;;4.45;2.88;;;15.70;67.80;;;;;;4794503;29;20083;-67
2021/06/09 03:24:26;;;;;;;5.30;2.70;;;15.70;67.90;;;;;;4792107;29;20062;-67
2021/06/09 03:26:59;;;;;;;3.75;2.92;;;15.70;67.90;;;;;;4807459;29;20478;-68
2021/06/09 03:29:52;;;;;;;7.07;3.00;;;15.60;68.00;;;;;;4807006;29;20150;-66
2021/06/09 03:32:44;;;;;;;3.00;2.70;;;15.60;68.20;;;;;;4794635;29;20062;-67
2021/06/09 03:35:18;;;;;;;4.03;3.28;;;15.60;68.20;;;;;;4814438;29;20364;-65
2021/06/09 03:37:51;;;;;;;3.78;3.28;;;15.50;68.10;;;;;;4789957;29;20486;-65
2021/06/09 03:40:36;;;;;;;7.10;4.00;;;15.50;68.30;;;;;;4807298;29;20066;-66
2021/06/09 03:43:08;;;;;;;7.57;3.90;;;15.40;68.60;;;;;;4781519;29;20082;-67
2021/06/09 03:45:47;;;;;;;5.32;4.50;;;15.30;68.80;;;;;;4783989;29;20055;-65
2021/06/09 03:48:17;;;;;;;7.38;4.63;;;15.30;68.90;;;;;;4782690;30;20060;-65
2021/06/09 03:50:48;;;;;;;6.40;4.82;;;15.30;68.80;;;;;;4798714;29;20063;-66
2021/06/09 03:53:18;;;;;;;9.35;4.80;;;15.30;68.80;;;;;;4811417;29;20048;-66
2021/06/09 03:55:47;;;;;;;5.90;4.68;;;15.30;68.90;;;;;;4781825;29;20498;-66
2021/06/09 03:58:17;;;;;;;9.38;5.50;;;15.30;69.00;;;;;;4801899;29;20059;-67
2021/06/09 04:00:47;;;;;;;7.10;5.20;;;15.30;69.10;;;;;;4788184;29;20055;-68
2021/06/09 04:03:19;;;;;;;6.65;5.05;;;15.20;69.10;;;;;;4798366;29;20082;-66
2021/06/09 04:05:48;;;;;;;7.78;5.20;;;15.20;69.20;;;;;;4810833;29;20391;-67
2021/06/09 04:08:17;;;;;;;9.25;5.40;;;15.20;69.30;;;;;;4810277;29;20066;-68
2021/06/09 04:10:47;;;;;;;8.48;5.05;;;15.20;69.40;;;;;;4790816;29;20059;-69
2021/06/09 04:13:17;;;;;;;7.50;4.68;;;15.10;69.40;;;;;;4792057;29;20394;-68
2021/06/09 04:15:46;;;;;;;7.13;4.78;;;15.10;69.60;;;;;;4777093;29;20479;-67
2021/06/09 04:18:15;;;;;;;5.25;4.60;;;15.00;69.70;;;;;;4792699;29;20051;-68
2021/06/09 04:20:46;;;;;;;6.45;4.93;;;15.00;69.70;;;;;;4791634;29;20391;-67
2021/06/09 04:23:14;;;;;;;9.43;5.40;;;15.10;69.80;;;;;;4793649;29;20074;-66
2021/06/09 04:25:43;;;;;;;5.70;5.07;;;15.10;69.80;;;;;;4805710;29;20387;-68
2021/06/09 04:28:12;;;;;;;6.10;4.38;;;15.10;69.80;;;;;;4791564;30;20070;-66
2021/06/09 04:30:41;;;;;;;7.50;5.00;;;15.10;69.60;;;;;;4790722;30;20063;-66
2021/06/09 04:33:10;;;;;;;7.78;4.30;;;15.10;69.40;;;;;;4806067;29;20127;-67
2021/06/09 04:35:41;;;;;;;7.05;4.38;;;15.10;69.40;;;;;;4792083;29;20123;-67
2021/06/09 04:38:15;;;;;;;6.18;4.45;;;15.10;69.50;;;;;;4805127;29;20054;-67
2021/06/09 04:40:42;;;;;;;;;;;15.10;69.60;;;;;;4806508;29;20080;-67
2021/06/09 04:43:11;;;;;;;6.85;5.45;;;15.10;69.50;;;;;;4790794;29;19929;-67
2021/06/09 04:45:39;;;;;;;5.65;5.07;;;15.10;69.40;;;;;;4790438;29;20062;-65
2021/06/09 04:48:12;;;;;;;6.00;4.97;;;15.10;69.50;;;;;;4788633;29;20540;-66
2021/06/09 04:50:41;;;;;;;10.98;4.68;;;15.10;69.70;;;;;;4772351;30;20056;-65
2021/06/09 04:53:10;;;;;;;7.25;5.18;;;15.10;69.80;;;;;;4787110;29;20051;-65
2021/06/09 04:55:44;;;;;;;6.72;5.05;;;15.10;69.90;;;;;;4791410;29;20063;-68
2021/06/09 04:58:14;;;;;;;6.75;5.97;;;15.10;70.10;;;;;;4790349;29;20055;-68
2021/06/09 05:00:44;;;;;;;7.82;5.18;;;15.10;70.20;;;;;;4791559;29;20062;-66
2021/06/09 05:03:12;;;;;;;5.70;5.15;;;15.00;70.30;;;;;;4790312;29;20542;-67
2021/06/09 05:05:40;;;;;;;5.40;4.90;;;15.10;70.30;;;;;;4791228;29;20070;-68
2021/06/09 05:08:08;;;;;;;6.85;5.07;;;15.10;70.40;;;;;;4805044;29;20067;-65
2021/06/09 05:10:39;;;;;;;8.75;5.03;;;15.10;70.50;;;;;;4789993;29;20051;-67
2021/06/09 05:13:13;;;;;;;8.48;4.68;;;15.10;70.50;;;;;;4804948;29;20399;-66
2021/06/09 05:15:53;;;;;;;5.18;4.68;;;15.10;70.50;;;;;;4790778;29;20062;-67
2021/06/09 05:18:25;;;;;;;4.28;3.85;;;15.10;70.40;;;;;;4803879;29;20490;-67
2021/06/09 05:20:53;;;;;;;4.60;3.80;;;15.10;69.70;;;;;;4791416;29;20529;-68
2021/06/09 05:23:42;;;;;;;4.10;3.70;;;15.10;68.90;;;;;;4804045;29;20059;-66
2021/06/09 05:26:13;;;;;;;8.32;3.72;;;15.10;68.20;;;;;;4790772;30;20491;-65
2021/06/09 05:28:49;;;;;;;3.60;3.30;;;15.10;67.90;;;;;;4790546;29;20059;-67
2021/06/09 05:31:19;;;;;;;6.20;3.10;;;15.10;67.40;;;;;;4803390;29;20349;-65
2021/06/09 05:33:48;;;;;;;4.40;3.75;;;15.10;67.30;;;;;;4790786;29;20058;-67
2021/06/09 05:36:18;;;;;;;8.18;3.72;;;15.20;67.50;;;;;;4789399;29;20051;-66
2021/06/09 05:38:46;;;;;;;5.05;3.55;;;15.30;67.80;;;;;;4790505;29;20052;-67
2021/06/09 05:41:17;;;;;;;4.28;3.85;;;15.20;67.80;;;;;;4789477;30;20063;-67
2021/06/09 05:43:45;;;;;;;5.13;3.78;;;15.20;67.70;;;;;;4789485;29;20059;-65
2021/06/09 05:46:13;;;;;;;4.93;3.70;;;15.30;67.40;;;;;;4774765;29;20055;-66
2021/06/09 05:48:43;;;;;;;5.85;3.42;;;15.30;67.20;;;;;;4772312;30;20060;-65
2021/06/09 05:51:15;;;;;;;3.97;3.58;;;15.30;67.10;;;;;;4785215;29;20052;-66
2021/06/09 05:53:45;;;;;;;4.47;3.63;;;15.30;66.60;;;;;;4772120;30;20052;-66
2021/06/09 05:56:15;;;;;;;5.53;3.33;;;15.30;66.20;;;;;;4779825;30;20051;-66
2021/06/09 05:58:43;;;;;;;4.13;3.80;;;15.40;66.00;;;;;;4790218;29;20085;-67
2021/06/09 06:01:12;;;;;;;5.18;3.53;;;15.40;65.90;;;;;;4789421;30;20059;-67
2021/06/09 06:03:42;;;;;;;4.05;3.70;;;15.50;65.80;;;;;;4789494;29;20070;-67
2021/06/09 06:06:12;;;;;;;5.35;3.33;;;15.50;65.60;;;;;;4789939;29;20059;-67
2021/06/09 06:08:43;;;;;;;7.85;3.63;;;15.50;65.50;;;;;;4789285;29;20063;-67
2021/06/09 06:11:14;;;;;;;7.88;3.30;;;15.50;65.40;;;;;;4802981;29;20055;-65
2021/06/09 06:13:46;;;;;;;5.82;3.45;;;15.50;65.30;;;;;;4790376;29;20138;-67
2021/06/09 06:16:19;;;;;;;5.50;3.78;;;15.60;65.40;;;;;;4771286;30;20060;-66
2021/06/09 06:18:49;;;;;;;3.90;3.20;;;15.60;65.30;;;;;;4772121;30;20060;-67
2021/06/09 06:21:19;;;;;;;5.28;3.72;;;15.70;65.20;;;;;;4771798;30;20059;-66
2021/06/09 06:23:47;;;;;;;4.60;3.53;;;15.70;65.10;;;;;;4788891;29;20059;-65
2021/06/09 06:26:17;;;;;;;7.90;3.45;;;15.70;65.00;;;;;;4788376;30;20066;-66
2021/06/09 06:28:46;;;;;;;5.53;3.70;;;15.70;64.90;;;;;;4789607;29;20063;-67
2021/06/09 06:31:19;;;;;;;4.05;2.90;;;15.70;64.80;;;;;;4779537;29;20063;-68
2021/06/09 06:33:48;;;;;;;6.03;3.10;;;15.80;64.70;;;;;;4771907;30;20071;-66
2021/06/09 06:36:19;;;;;;;3.90;3.15;;;15.80;64.60;;;;;;4771166;30;20055;-65
2021/06/09 06:38:48;;;;;;;5.72;3.40;;;15.80;64.40;;;;;;4785513;30;20063;-67
2021/06/09 06:41:17;;;;;;;6.25;3.38;;;15.80;64.40;;;;;;4785545;30;20074;-68
2021/06/09 06:43:45;;;;;;;5.45;3.03;;;15.80;64.30;;;;;;4770932;30;20060;-66
2021/06/09 06:46:16;;;;;;;5.55;2.55;;;15.80;64.10;;;;;;4776585;30;20054;-67
2021/06/09 06:48:47;;;;;;;4.50;2.25;;;15.90;64.10;;;;;;4795234;29;20059;-65
2021/06/09 06:51:16;;;;;;;3.42;2.70;;;15.90;64.10;;;;;;4775303;30;20051;-67
2021/06/09 06:53:47;;;;;;;5.28;2.83;;;15.90;64.10;;;;;;4789501;29;20070;-65
2021/06/09 06:56:18;;;;;;;4.18;2.72;;;16.00;63.70;;;;;;4787794;29;20060;-67
2021/06/09 06:58:49;;;;;;;3.88;2.75;;;16.00;63.40;;;;;;4773444;30;20467;-67
2021/06/09 07:01:29;;;;;;;4.28;2.28;;;16.00;63.20;;;;;;4771892;30;20059;-65
2021/06/09 07:03:58;;;;;;;5.18;2.20;;;16.00;63.00;;;;;;4801897;29;20466;-66
2021/06/09 07:06:27;;;;;;;4.28;2.20;;;16.00;63.00;;;;;;4788820;29;20059;-67
2021/06/09 07:09:17;;;;;;;4.68;2.53;;;16.10;63.20;;;;;;4789329;29;20084;-65
2021/06/09 07:11:47;;;;;;;4.75;2.05;;;16.10;63.30;;;;;;4787430;29;20059;-65
2021/06/09 07:14:16;;;;;;;4.95;2.20;;;16.20;63.50;;;;;;4789135;29;20059;-67
2021/06/09 07:16:45;;;;;;;2.70;2.00;;;16.20;63.40;;;;;;4802300;29;20078;-65
2021/06/09 07:19:13;;;;;;;2.72;1.98;;;16.30;63.10;;;;;;4788335;30;20051;-65
2021/06/09 07:21:42;;;;;;;2.97;2.08;;;16.30;62.80;;;;;;4788580;29;20078;-67
2021/06/09 07:24:12;;;;;;;1.73;1.52;;;16.30;62.60;;;;;;4787810;29;20074;-67
2021/06/09 07:26:44;;;;;;;5.40;2.00;;;16.30;62.00;;;;;;4788275;29;20066;-66
2021/06/09 07:29:16;;;;;;;3.17;1.52;;;16.40;61.20;;;;;;4786038;29;20067;-68
2021/06/09 07:31:46;;;;;;;4.75;1.73;;;16.40;60.80;;;;;;4802014;29;20047;-65
2021/06/09 07:34:15;;;;;;;2.00;1.30;;;16.50;60.40;;;;;;4805216;29;20066;-66
2021/06/09 07:36:50;;;;;;;2.97;1.60;;;16.50;60.20;;;;;;4790339;29;20078;-66
2021/06/09 07:39:36;;;;;;;2.47;1.75;;;16.50;59.70;;;;;;4793101;29;20458;-65
2021/06/09 07:42:09;;;;;;;4.30;2.00;;;16.60;59.60;;;;;;4802572;29;20059;-66
2021/06/09 07:44:52;;;;;;;2.15;1.63;;;16.60;59.70;;;;;;4791962;29;20078;-68
2021/06/09 07:47:21;;;;;;;4.10;2.15;;;16.70;59.60;;;;;;4788902;29;20062;-66
2021/06/09 07:49:52;;;;;;;4.10;1.90;;;16.80;59.60;;;;;;4796424;29;20063;-66
2021/06/09 07:52:22;;;;;;;4.13;1.65;;;16.80;59.40;;;;;;4794698;29;20057;-65
2021/06/09 07:54:51;;;;;;;2.13;1.30;;;16.80;58.80;;;;;;4811719;29;20051;-65
2021/06/09 07:57:21;;;;;;;4.45;1.50;;;16.80;58.40;;;;;;4799577;29;20058;-67
2021/06/09 07:59:51;;;;;;;2.90;1.92;;;16.90;58.40;;;;;;4797770;29;20055;-67
2021/06/09 08:02:20;;;;;;;3.10;2.45;;;16.90;58.60;;;;;;4799095;29;20063;-66
2021/06/09 08:04:49;;;;;;;4.03;2.00;;;17.00;58.70;;;;;;4790480;29;20066;-65
2021/06/09 08:07:17;;;;;;;1.75;1.50;;;17.10;58.40;;;;;;4787017;29;20755;-67
2021/06/09 08:09:45;;;;;;;2.75;1.52;;;17.10;57.80;;;;;;4814202;29;20415;-67
2021/06/09 08:12:14;;;;;;;3.55;1.55;;;17.10;57.30;;;;;;4812588;29;20058;-65
2021/06/09 08:14:42;;;;;;;2.67;1.60;;;17.20;57.10;;;;;;4801924;29;20074;-67
2021/06/09 08:17:10;;;;;;;3.53;1.65;;;17.20;56.50;;;;;;4804942;29;20054;-65
2021/06/09 08:19:41;;;;;;;2.47;1.30;;;17.30;56.50;;;;;;4798871;29;20054;-67
2021/06/09 08:22:10;;;;;;;3.72;1.73;;;17.30;56.80;;;;;;4799097;29;20410;-67
2021/06/09 08:24:39;;;;;;;2.08;1.38;;;17.30;56.70;;;;;;4788892;29;20063;-66
2021/06/09 08:27:09;;;;;;;3.08;1.30;;;17.40;56.60;;;;;;4806657;29;20059;-65
2021/06/09 08:29:41;;;;;;;1.77;1.67;;;17.50;56.00;;;;;;4789406;29;20063;-66
2021/06/09 08:32:10;;;;;;;4.10;1.40;;;17.50;55.60;;;;;;4799289;29;20051;-68
2021/06/09 08:34:39;;;;;;;2.53;1.60;;;17.60;55.50;;;;;;4797861;29;20376;-66
2021/06/09 08:37:07;;;;;;;2.70;1.55;;;17.70;55.40;;;;;;4796263;29;20062;-67
2021/06/09 08:39:34;;;;;;;2.70;1.60;;;17.80;55.00;;;;;;4795377;29;20367;-66
2021/06/09 08:42:06;;;;;;;1.48;1.38;;;17.80;55.00;;;;;;4796321;29;20055;-64
2021/06/09 08:44:39;;;;;;;1.92;1.35;;;17.80;54.80;;;;;;4795210;29;20083;-67
2021/06/09 08:47:09;;;;;;;3.22;1.55;;;17.90;54.60;;;;;;4789035;29;20062;-64
2021/06/09 08:49:40;;;;;;;7.72;1.70;;;17.90;54.60;;;;;;4784535;29;20059;-65
2021/06/09 08:52:16;;;;;;;3.15;1.50;;;18.00;54.60;;;;;;4795627;29;20051;-66
2021/06/09 08:54:48;;;;;;;3.00;1.27;;;18.10;54.80;;;;;;4795348;29;20059;-65
2021/06/09 08:57:17;;;;;;;2.22;1.10;;;18.20;54.20;;;;;;4791462;29;20062;-68
2021/06/09 08:59:46;;;;;;;3.75;1.50;;;18.20;53.90;;;;;;4804651;29;20066;-65
2021/06/09 09:02:14;;;;;;;1.40;1.00;;;18.30;53.60;;;;;;4788411;30;20059;-68
2021/06/09 09:04:42;;;;;;;2.05;1.17;;;18.40;53.30;;;;;;4789565;29;20067;-68
2021/06/09 09:07:11;;;;;;;1.90;1.42;;;18.50;52.70;;;;;;4799507;29;20054;-65
2021/06/09 09:09:39;;;;;;;1.10;0.98;;;18.50;52.40;;;;;;4797270;29;20070;-67
2021/06/09 09:12:08;;;;;;;2.17;1.13;;;18.60;52.40;;;;;;4793442;29;20062;-67
2021/06/09 09:14:37;;;;;;;1.52;1.10;;;18.60;52.50;;;;;;4799790;29;20055;-68
2021/06/09 09:17:09;;;;;;;2.15;1.35;;;18.70;52.30;;;;;;4795261;29;20051;-66
2021/06/09 09:19:43;;;;;;;1.60;0.80;;;18.80;52.20;;;;;;4794760;29;20059;-66
2021/06/09 09:22:16;;;;;;;0.98;0.88;;;18.80;51.90;;;;;;4802941;29;20051;-65
2021/06/09 09:24:48;;;;;;;2.38;1.10;;;18.80;51.80;;;;;;4797322;29;20059;-65
2021/06/09 09:27:31;;;;;;;0.95;0.80;;;18.90;51.90;;;;;;4790935;29;20475;-67
2021/06/09 09:30:09;;;;;;;2.47;1.15;;;19.00;52.00;;;;;;4815737;29;20391;-66
2021/06/09 09:32:56;;;;;;;1.38;0.98;;;19.10;52.10;;;;;;4800046;29;20062;-67
2021/06/09 09:35:38;;;;;;;1.08;0.77;;;19.20;51.90;;;;;;4793856;29;20063;-67
2021/06/09 09:38:30;;;;;;;1.58;0.80;;;19.20;52.10;;;;;;4771096;30;20060;-68
2021/06/09 09:41:06;;;;;;;2.25;1.00;;;19.30;52.10;;;;;;4790406;29;20751;-66
2021/06/09 09:43:44;;;;;;;4.20;1.02;;;19.30;52.30;;;;;;4796586;29;20494;-67
2021/06/09 09:46:40;;;;;;;0.98;0.93;;;19.40;52.60;;;;;;4804871;29;20067;-68
2021/06/09 09:49:09;;;;;;;2.88;1.20;;;19.40;52.60;;;;;;4788436;29;20497;-66
2021/06/09 09:51:54;;;;;;;2.58;1.40;;;19.40;52.70;;;;;;4805546;29;20467;-67
2021/06/09 09:54:29;;;;;;;3.03;0.90;;;19.50;52.80;;;;;;4795102;29;20054;-68
2021/06/09 09:56:59;;;;;;;2.22;0.80;;;19.60;53.20;;;;;;4788697;29;20063;-66
2021/06/09 09:59:30;;;;;;;2.35;0.90;;;19.60;53.50;;;;;;4790932;29;20059;-66
2021/06/09 10:02:16;;;;;;;1.48;1.10;;;19.70;53.50;;;;;;4795251;29;20062;-66
2021/06/09 10:04:51;;;;;;;1.23;1.10;;;19.70;53.70;;;;;;4805774;29;20063;-66
2021/06/09 10:07:19;;;;;;;3.35;1.00;;;19.80;53.90;;;;;;4806903;29;20066;-68
2021/06/09 10:09:47;;;;;;;3.38;1.08;;;19.80;54.10;;;;;;4802614;29;20054;-69
2021/06/09 10:12:17;;;;;;;2.80;1.10;;;19.80;54.10;;;;;;4813170;29;20061;-68
2021/06/09 10:14:47;;;;;;;1.30;0.93;;;19.90;54.50;;;;;;4806959;29;20055;-67
2021/06/09 10:17:18;;;;;;;1.85;1.17;;;20.00;55.00;;;;;;4805834;29;20471;-67
2021/06/09 10:19:58;;;;;;;5.18;1.55;;;20.20;54.80;;;;;;4807639;29;20066;-66
2021/06/09 10:22:36;;;;;;;3.15;1.42;;;20.30;55.60;;;;;;4816594;29;20379;-68
2021/06/09 10:25:07;;;;;;;1.55;1.02;;;20.50;55.60;;;;;;4786590;29;20062;-66
2021/06/09 10:27:51;;;;;;;1.20;1.10;;;20.70;54.90;;;;;;4787415;29;20055;-66
2021/06/09 10:30:26;;;;;;;1.40;1.00;;;20.80;54.30;;;;;;4786160;29;20394;-68
2021/06/09 10:33:01;;;;;;;1.58;0.90;;;20.80;54.00;;;;;;4800652;29;20071;-69
2021/06/09 10:35:35;;;;;;;1.60;1.00;;;20.90;53.90;;;;;;4787869;29;20063;-68
2021/06/09 10:38:05;;;;;;;1.42;0.80;;;21.00;53.70;;;;;;4787392;29;20130;-66
2021/06/09 10:40:34;;;;;;;3.55;1.30;;;21.10;53.70;;;;;;4788022;30;20126;-68
2021/06/09 10:43:07;;;;;;;2.60;1.35;;;21.20;53.90;;;;;;4787621;29;20071;-66
2021/06/09 10:45:37;;;;;;;2.53;1.15;;;21.30;53.80;;;;;;4770733;30;20051;-68
2021/06/09 10:48:07;;;;;;;2.60;1.10;;;21.30;53.70;;;;;;4802320;29;20398;-68
2021/06/09 10:50:35;;;;;;;2.22;0.90;;;21.50;53.70;;;;;;4801658;29;20062;-66
2021/06/09 10:53:15;;;;;;;1.58;1.00;;;21.60;53.50;;;;;;4779578;29;20074;-65
2021/06/09 10:55:44;;;;;;;2.70;1.25;;;21.80;53.30;;;;;;4772558;30;20379;-66
2021/06/09 10:58:13;;;;;;;1.20;0.88;;;21.90;53.10;;;;;;4793999;29;20063;-67
2021/06/09 11:00:42;;;;;;;1.58;1.00;;;22.10;52.80;;;;;;4770780;30;20071;-68
2021/06/09 11:03:11;;;;;;;2.15;1.15;;;22.20;52.50;;;;;;4783577;29;20059;-68
2021/06/09 11:05:39;;;;;;;2.60;1.00;;;22.30;52.20;;;;;;4787540;29;20062;-68
2021/06/09 11:08:06;;;;;;;2.38;1.33;;;22.40;52.00;;;;;;4788130;29;20070;-68
2021/06/09 11:10:37;;;;;;;3.30;1.00;;;22.50;52.00;;;;;;4801021;29;20071;-68
2021/06/09 11:13:09;;;;;;;1.42;1.05;;;22.60;51.70;;;;;;4788253;29;20055;-68
2021/06/09 11:15:39;;;;;;;1.55;1.10;;;22.70;51.50;;;;;;4802575;29;20058;-67
2021/06/09 11:18:16;;;;;;;3.58;1.20;;;22.80;51.40;;;;;;4787378;29;20078;-67
2021/06/09 11:20:48;;;;;;;1.27;0.93;;;22.80;51.10;;;;;;4802027;29;20240;-66
2021/06/09 11:23:20;;;;;;;1.40;1.02;;;22.90;50.90;;;;;;4801178;29;20070;-68
2021/06/09 11:25:48;;;;;;;2.63;1.30;;;23.00;51.00;;;;;;4788326;29;20475;-67
2021/06/09 11:28:26;;;;;;;1.63;0.98;;;23.00;50.80;;;;;;4788207;29;20082;-69
2021/06/09 11:30:55;;;;;;;1.70;0.90;;;23.10;50.50;;;;;;4778486;29;20067;-68
2021/06/09 11:33:37;;;;;;;3.03;1.27;;;23.20;50.40;;;;;;4773599;30;20075;-68
2021/06/09 11:36:12;;;;;;;1.73;1.20;;;23.20;50.30;;;;;;4774007;30;20059;-66
2021/06/09 11:38:43;;;;;;;1.08;0.90;;;23.30;50.30;;;;;;4805596;29;20678;-67
2021/06/09 11:41:11;;;;;;;1.85;0.80;;;23.30;50.10;;;;;;4791599;29;20059;-67
2021/06/09 11:43:42;;;;;;;3.20;1.02;;;23.40;49.80;;;;;;4790303;29;20059;-66
2021/06/09 11:46:18;;;;;;;2.58;1.10;;;23.50;50.10;;;;;;4805524;29;20070;-66
2021/06/09 11:49:06;;;;;;;0.95;0.77;;;23.60;49.90;;;;;;4805570;29;20066;-66
2021/06/09 11:51:46;;;;;;;1.08;0.90;;;23.60;49.60;;;;;;4790450;30;20063;-66
2021/06/09 11:54:38;;;;;;;1.08;0.90;;;23.70;49.70;;;;;;4789889;30;20058;-68
2021/06/09 11:57:17;;;;;;;1.90;0.80;;;23.80;49.40;;;;;;4790542;29;20055;-66
2021/06/09 11:59:51;;;;;;;3.25;0.70;;;23.80;49.70;;;;;;4790589;29;20063;-68
2021/06/09 12:02:24;;;;;;;3.78;0.80;;;23.80;50.00;;;;;;4790979;29;20074;-66
2021/06/09 12:04:56;;;;;;;2.67;0.90;;;23.80;50.00;;;;;;4803679;29;20055;-66
2021/06/09 12:07:34;;;;;;;1.27;0.90;;;23.90;50.10;;;;;;4791201;29;20467;-67
2021/06/09 12:10:10;;;;;;;1.52;0.90;;;23.80;49.90;;;;;;4803693;29;20590;-70
2021/06/09 12:12:38;;;;;;;1.67;0.90;;;23.60;50.20;;;;;;4790812;29;20062;-68
2021/06/09 12:15:10;;;;;;;1.58;0.80;;;23.50;50.70;;;;;;4804436;29;20047;-68
2021/06/09 12:17:43;;;;;;;2.10;0.88;;;23.40;51.10;;;;;;4789781;29;20083;-67
2021/06/09 12:20:18;;;;;;;0.90;0.70;;;23.30;51.30;;;;;;4789448;29;20058;-68
2021/06/09 12:22:57;;;;;;;2.70;0.63;;;23.30;51.60;;;;;;4790676;29;20066;-67
2021/06/09 12:25:31;;;;;;;1.15;0.80;;;23.20;51.90;;;;;;4790655;29;20063;-67
2021/06/09 12:28:12;;;;;;;2.30;0.60;;;23.20;52.40;;;;;;4804926;29;20070;-67
2021/06/09 12:30:44;;;;;;;1.52;0.70;;;23.20;52.80;;;;;;4789401;29;20482;-67
2021/06/09 12:33:12;;;;;;;2.35;0.50;;;23.20;52.90;;;;;;4790954;29;20063;-67
2021/06/09 12:35:40;;;;;;;2.13;0.60;;;23.20;53.10;;;;;;4804157;29;20051;-68
2021/06/09 12:38:08;;;;;;;2.10;0.50;;;23.20;53.20;;;;;;4803640;29;20059;-69
2021/06/09 12:40:45;;;;;;;1.55;0.70;;;23.10;53.30;;;;;;4789316;30;20055;-68
2021/06/09 12:43:20;;;;;;;3.13;0.60;;;23.00;53.90;;;;;;4789445;29;20062;-67
2021/06/09 12:45:48;;;;;;;0.60;0.50;;;23.00;54.30;;;;;;4804355;29;20059;-67
2021/06/09 12:48:19;;;;;;;0.50;0.45;;;22.90;54.50;;;;;;4789318;29;20055;-67
2021/06/09 12:50:48;;;;;;;1.73;0.60;;;22.80;54.70;;;;;;4803156;29;20067;-66
2021/06/09 12:53:19;;;;;;;0.50;0.40;;;22.70;55.10;;;;;;4801924;29;20051;-69
2021/06/09 12:55:48;;;;;;;1.75;0.57;;;22.70;55.40;;;;;;4790181;29;20058;-67
2021/06/09 12:58:22;;;;;;;1.00;0.65;;;22.70;55.70;;;;;;4789352;29;20068;-68
2021/06/09 13:00:55;;;;;;;0.85;0.82;;;22.70;55.90;;;;;;4802382;29;20048;-67
2021/06/09 13:03:27;;;;;;;;;;;22.80;56.00;;;;;;4788637;29;20066;-68
2021/06/09 13:06:04;;;;;;;0.70;0.28;;;22.80;55.80;;;;;;4790076;29;19925;-69
2021/06/09 13:08:39;;;;;;;2.00;0.40;;;22.80;55.30;;;;;;4788632;29;20055;-68
2021/06/09 13:11:19;;;;;;;3.38;0.40;;;22.90;55.20;;;;;;4789554;29;20066;-67
2021/06/09 13:14:00;;;;;;;1.75;0.35;;;22.80;55.40;;;;;;4789741;29;20055;-69